createdAt,value
2023-03-06T00:00:41.099Z,3.80
2023-03-06T00:03:42.741Z,3.80
2023-03-06T00:06:44.447Z,3.80
2023-03-06T00:09:46.079Z,3.80
2023-03-06T00:12:47.772Z,3.80
2023-03-06T00:15:49.999Z,3.70
2023-03-06T00:18:51.996Z,3.80
2023-03-06T00:21:54.590Z,3.80
2023-03-06T00:24:56.202Z,3.80
2023-03-06T00:27:57.848Z,3.80
2023-03-06T00:31:00.492Z,3.80
2023-03-06T00:34:02.849Z,3.80
2023-03-06T00:37:04.460Z,3.80
2023-03-06T00:40:07.456Z,3.80
2023-03-06T00:43:09.286Z,3.80
2023-03-06T00:46:11.035Z,3.90
2023-03-06T00:49:12.736Z,3.80
2023-03-06T00:52:14.355Z,3.80
2023-03-06T00:55:16.112Z,3.80
2023-03-06T00:58:18.009Z,3.80
2023-03-06T01:01:19.834Z,3.80
2023-03-06T01:04:21.594Z,3.80
2023-03-06T01:07:23.320Z,3.80
2023-03-06T01:10:24.874Z,3.80
2023-03-06T01:13:26.580Z,3.70
2023-03-06T01:16:28.616Z,3.80
2023-03-06T01:19:30.263Z,3.70
2023-03-06T01:22:31.950Z,3.70
2023-03-06T01:25:33.582Z,3.70
2023-03-06T01:28:37.375Z,3.60
2023-03-06T01:31:39.030Z,3.60
2023-03-06T01:34:40.733Z,3.60
2023-03-06T01:37:42.457Z,3.60
2023-03-06T01:40:44.135Z,3.60
2023-03-06T01:43:47.121Z,3.60
2023-03-06T01:46:48.744Z,3.60
2023-03-06T01:49:50.625Z,3.50
2023-03-06T01:52:58.782Z,3.50
2023-03-06T01:56:00.500Z,3.50
2023-03-06T01:59:02.888Z,3.60
2023-03-06T02:02:08.013Z,3.60
2023-03-06T02:05:09.953Z,3.60
2023-03-06T02:08:14.693Z,3.60
2023-03-06T02:11:22.316Z,3.60
2023-03-06T02:14:24.360Z,3.70
2023-03-06T02:17:26.818Z,3.60
2023-03-06T02:20:38.009Z,3.60
2023-03-06T02:24:15.471Z,3.60
2023-03-06T02:27:17.857Z,3.50
2023-03-06T02:30:19.633Z,3.50
2023-03-06T02:33:27.887Z,3.50
2023-03-06T02:36:30.715Z,3.50
2023-03-06T02:39:35.773Z,3.50
2023-03-06T02:42:37.482Z,3.50
2023-03-06T02:45:45.066Z,3.50
2023-03-06T02:48:46.796Z,3.50
2023-03-06T02:51:48.397Z,3.40
2023-03-06T02:54:50.069Z,3.40
2023-03-06T02:57:51.816Z,3.40
2023-03-06T03:00:53.377Z,3.50
2023-03-06T03:03:54.958Z,3.40
2023-03-06T03:06:56.630Z,3.40
2023-03-06T03:09:58.276Z,3.40
2023-03-06T03:12:59.969Z,3.40
2023-03-06T03:16:04.362Z,3.30
2023-03-06T03:19:06.000Z,3.30
2023-03-06T03:22:07.829Z,3.30
2023-03-06T03:25:09.843Z,3.30
2023-03-06T03:28:11.407Z,3.30
2023-03-06T03:31:14.044Z,3.30
2023-03-06T03:34:16.162Z,3.30
2023-03-06T03:37:18.465Z,3.40
2023-03-06T03:40:20.493Z,3.30
2023-03-06T03:43:22.180Z,3.30
2023-03-06T03:46:23.986Z,3.40
2023-03-06T03:49:25.696Z,3.40
2023-03-06T03:52:27.359Z,3.40
2023-03-06T03:55:29.383Z,3.50
2023-03-06T03:58:31.204Z,3.50
2023-03-06T04:01:32.893Z,3.50
2023-03-06T04:04:34.584Z,3.50
2023-03-06T04:07:36.202Z,3.50
2023-03-06T04:10:39.348Z,3.50
2023-03-06T04:13:40.965Z,3.50
2023-03-06T04:16:42.548Z,3.50
2023-03-06T04:19:44.136Z,3.50
2023-03-06T04:22:45.722Z,3.50
2023-03-06T04:25:47.284Z,3.40
2023-03-06T04:28:48.896Z,3.50
2023-03-06T04:31:50.538Z,3.40
2023-03-06T04:34:52.149Z,3.40
2023-03-06T04:37:53.742Z,3.40
2023-03-06T04:40:55.498Z,3.40
2023-03-06T04:43:57.387Z,3.30
2023-03-06T04:46:58.947Z,3.30
2023-03-06T04:50:00.580Z,3.30
2023-03-06T04:53:03.451Z,3.30
2023-03-06T04:56:05.783Z,3.30
2023-03-06T04:59:07.625Z,3.30
2023-03-06T05:02:09.276Z,3.30
2023-03-06T05:05:12.019Z,3.20
2023-03-06T05:08:15.332Z,3.20
2023-03-06T05:11:16.948Z,3.30
2023-03-06T05:14:18.548Z,3.30
2023-03-06T05:17:20.189Z,3.30
2023-03-06T05:20:21.771Z,3.30
2023-03-06T05:23:23.398Z,3.30
2023-03-06T05:26:25.077Z,3.20
2023-03-06T05:29:26.669Z,3.30
2023-03-06T05:32:28.823Z,3.30
2023-03-06T05:35:30.591Z,3.30
2023-03-06T05:38:32.664Z,3.20
2023-03-06T05:41:34.355Z,3.20
2023-03-06T05:44:36.573Z,3.20
2023-03-06T05:47:38.450Z,3.20
2023-03-06T05:50:40.345Z,3.10
2023-03-06T05:53:42.013Z,3.10
2023-03-06T05:56:43.613Z,3.10
2023-03-06T05:59:46.392Z,3.10
2023-03-06T06:02:48.141Z,3.10
2023-03-06T06:05:50.087Z,3.00
2023-03-06T06:08:51.658Z,3.10
2023-03-06T06:11:59.552Z,3.10
2023-03-06T06:15:01.310Z,3.10
2023-03-06T06:18:02.935Z,3.00
2023-03-06T06:21:06.260Z,3.10
2023-03-06T06:24:07.951Z,3.10
2023-03-06T06:27:09.862Z,3.10
2023-03-06T06:30:12.182Z,3.10
2023-03-06T06:33:13.801Z,3.10
2023-03-06T06:36:19.793Z,3.20
2023-03-06T06:39:23.016Z,3.20
2023-03-06T06:42:39.035Z,3.30
2023-03-06T06:45:44.034Z,3.20
2023-03-06T06:48:49.283Z,3.20
2023-03-06T06:51:50.896Z,3.30
2023-03-06T06:54:53.049Z,3.30
2023-03-06T06:57:54.663Z,3.30
2023-03-06T07:00:56.239Z,3.30
2023-03-06T07:03:57.932Z,3.30
2023-03-06T07:06:59.878Z,3.30
2023-03-06T07:10:01.622Z,3.40
2023-03-06T07:13:03.211Z,3.50
2023-03-06T07:16:05.284Z,3.50
2023-03-06T07:19:08.006Z,3.60
2023-03-06T07:22:09.808Z,3.60
2023-03-06T07:25:11.536Z,3.70
2023-03-06T07:28:13.379Z,3.90
2023-03-06T07:31:15.199Z,4.00
2023-03-06T07:34:16.796Z,4.10
2023-03-06T07:37:18.529Z,4.10
2023-03-06T07:40:20.785Z,4.20
2023-03-06T07:43:22.398Z,4.20
2023-03-06T07:46:24.068Z,4.30
2023-03-06T07:49:25.705Z,4.30
2023-03-06T07:52:27.268Z,4.40
2023-03-06T07:55:28.852Z,4.40
2023-03-06T07:58:30.447Z,4.50
2023-03-06T08:01:32.115Z,4.50
2023-03-06T08:04:34.282Z,4.50
2023-03-06T08:07:35.958Z,4.50
2023-03-06T08:10:38.762Z,4.40
2023-03-06T08:13:40.522Z,4.40
2023-03-06T08:16:42.365Z,4.40
2023-03-06T08:19:43.960Z,4.40
2023-03-06T08:22:45.642Z,4.40
2023-03-06T08:25:56.042Z,4.50
2023-03-06T08:28:59.666Z,4.50
2023-03-06T08:32:01.516Z,4.60
2023-03-06T08:35:06.580Z,4.60
2023-03-06T08:38:08.165Z,4.50
2023-03-06T08:41:09.768Z,4.50
2023-03-06T08:44:12.106Z,4.50
2023-03-06T08:47:13.909Z,4.60
2023-03-06T08:50:15.607Z,4.60
2023-03-06T08:53:17.602Z,4.70
2023-03-06T08:56:28.058Z,4.80
2023-03-06T08:59:29.625Z,4.90
2023-03-06T09:02:31.976Z,5.00
2023-03-06T09:05:33.852Z,5.10
2023-03-06T09:08:35.538Z,5.10
2023-03-06T09:11:37.671Z,5.00
2023-03-06T09:14:39.262Z,5.10
2023-03-06T09:17:40.944Z,5.10
2023-03-06T09:20:42.620Z,5.00
2023-03-06T09:23:44.597Z,5.20
2023-03-06T09:26:47.958Z,5.40
2023-03-06T09:29:50.470Z,5.40
2023-03-06T09:32:52.018Z,5.60
2023-03-06T09:35:56.352Z,5.60
2023-03-06T09:38:58.002Z,5.70
2023-03-06T09:41:59.913Z,5.70
2023-03-06T09:45:02.643Z,5.50
2023-03-06T09:48:16.698Z,5.50
2023-03-06T09:51:24.524Z,5.50
2023-03-06T09:54:47.564Z,5.60
2023-03-06T09:58:24.247Z,5.80
2023-03-06T10:01:34.966Z,5.80
2023-03-06T10:04:43.692Z,5.70
2023-03-06T10:08:00.479Z,5.60
2023-03-06T10:11:05.459Z,5.70
2023-03-06T10:14:39.629Z,5.70
2023-03-06T10:17:43.063Z,6.00
2023-03-06T10:21:02.546Z,6.20
2023-03-06T10:24:29.901Z,6.40
2023-03-06T10:28:10.266Z,6.60
2023-03-06T10:31:28.587Z,6.30
2023-03-06T10:34:36.263Z,6.10
2023-03-06T10:37:37.883Z,5.90
2023-03-06T10:41:05.373Z,5.80
2023-03-06T10:44:07.822Z,5.70
2023-03-06T10:47:31.181Z,5.70
2023-03-06T10:50:34.370Z,5.70
2023-03-06T10:53:36.033Z,5.70
2023-03-06T10:56:40.076Z,5.70
2023-03-06T10:59:52.425Z,5.80
2023-03-06T11:03:21.239Z,5.90
2023-03-06T11:06:34.957Z,6.00
2023-03-06T11:09:36.906Z,6.20
2023-03-06T11:12:41.145Z,6.30
2023-03-06T11:15:57.019Z,6.50
2023-03-06T11:19:05.433Z,6.70
2023-03-06T11:22:17.903Z,7.00
2023-03-06T11:25:22.517Z,7.10
2023-03-06T11:28:29.764Z,7.30
2023-03-06T11:31:35.074Z,6.90
2023-03-06T11:34:39.305Z,7.00
2023-03-06T11:37:58.252Z,7.00
2023-03-06T11:41:05.407Z,7.10
2023-03-06T11:44:20.975Z,7.20
2023-03-06T11:47:32.661Z,7.10
2023-03-06T11:50:44.902Z,7.20
2023-03-06T11:53:49.297Z,7.30
2023-03-06T11:57:02.332Z,7.40
2023-03-06T12:00:27.479Z,7.50
2023-03-06T12:04:24.322Z,7.60
2023-03-06T12:07:32.570Z,7.40
2023-03-06T12:10:52.030Z,7.40
2023-03-06T12:14:41.445Z,7.30
2023-03-06T12:17:58.669Z,7.10
2023-03-06T12:21:22.573Z,7.50
2023-03-06T12:24:58.283Z,7.80
2023-03-06T12:28:26.040Z,8.00
2023-03-06T12:31:49.776Z,7.70
2023-03-06T12:35:16.892Z,7.70
2023-03-06T12:38:40.551Z,7.70
2023-03-06T12:42:00.224Z,7.70
2023-03-06T12:45:28.492Z,7.50
2023-03-06T12:48:35.553Z,7.70
2023-03-06T12:51:39.833Z,8.00
2023-03-06T12:54:42.200Z,8.20
2023-03-06T12:57:43.990Z,8.20
2023-03-06T13:01:09.523Z,8.10
2023-03-06T13:04:35.277Z,8.20
2023-03-06T13:08:10.562Z,8.10
2023-03-06T13:11:30.161Z,8.20
2023-03-06T13:14:58.394Z,7.90
2023-03-06T13:18:00.596Z,7.90
2023-03-06T13:21:04.346Z,8.10
2023-03-06T13:24:14.254Z,8.10
2023-03-06T13:27:46.900Z,8.00
2023-03-06T13:30:48.567Z,8.20
2023-03-06T13:33:56.454Z,8.10
2023-03-06T13:37:16.752Z,7.80
2023-03-06T13:40:33.315Z,7.70
2023-03-06T13:43:43.498Z,7.80
2023-03-06T13:46:59.627Z,7.90
2023-03-06T13:50:17.847Z,8.00
2023-03-06T13:53:45.902Z,8.00
2023-03-06T13:57:05.583Z,8.00
2023-03-06T14:00:31.806Z,8.00
2023-03-06T14:04:00.441Z,7.80
2023-03-06T14:07:06.257Z,7.70
2023-03-06T14:10:08.096Z,7.60
2023-03-06T14:13:17.497Z,7.50
2023-03-06T14:16:48.645Z,7.10
2023-03-06T14:19:51.386Z,7.00
2023-03-06T14:22:53.512Z,6.80
2023-03-06T14:26:01.062Z,6.40
2023-03-06T14:29:03.354Z,6.20
2023-03-06T14:32:10.710Z,5.90
2023-03-06T14:35:30.951Z,5.90
2023-03-06T14:38:42.489Z,5.80
2023-03-06T14:41:44.050Z,5.80
2023-03-06T14:44:59.476Z,5.70
2023-03-06T14:48:01.394Z,5.70
2023-03-06T14:51:03.056Z,5.60
2023-03-06T14:54:04.995Z,5.60
2023-03-06T14:57:12.995Z,5.60
2023-03-06T15:00:19.298Z,5.60
2023-03-06T15:03:27.749Z,5.50
2023-03-06T15:06:41.819Z,5.50
2023-03-06T15:09:50.107Z,5.50
2023-03-06T15:12:51.872Z,5.50
2023-03-06T15:16:04.392Z,5.60
2023-03-06T15:19:16.977Z,5.60
2023-03-06T15:22:40.122Z,5.70
2023-03-06T15:25:50.426Z,5.70
2023-03-06T15:29:03.405Z,5.70
2023-03-06T15:32:34.585Z,5.70
2023-03-06T15:35:38.206Z,5.80
2023-03-06T15:38:42.867Z,5.80
2023-03-06T15:41:44.916Z,5.70
2023-03-06T15:44:52.828Z,5.70
2023-03-06T15:47:55.895Z,5.70
2023-03-06T15:50:57.842Z,5.50
2023-03-06T15:54:11.255Z,5.50
2023-03-06T15:57:26.540Z,5.30
2023-03-06T16:00:33.970Z,5.20
2023-03-06T16:03:35.590Z,5.10
2023-03-06T16:06:37.672Z,5.10
2023-03-06T16:09:41.166Z,5.00
2023-03-06T16:12:47.438Z,5.00
2023-03-06T16:15:50.234Z,4.90
2023-03-06T16:18:51.859Z,4.90
2023-03-06T16:21:55.118Z,4.90
2023-03-06T16:24:56.654Z,4.80
2023-03-06T16:27:58.536Z,4.80
2023-03-06T16:31:00.178Z,4.70
2023-03-06T16:34:01.808Z,4.60
2023-03-06T16:37:03.808Z,4.60
2023-03-06T16:40:14.938Z,4.60
2023-03-06T16:43:16.649Z,4.60
2023-03-06T16:46:21.863Z,4.60
2023-03-06T16:49:24.899Z,4.60
2023-03-06T16:52:26.554Z,4.70
2023-03-06T16:55:28.354Z,4.70
2023-03-06T16:58:29.966Z,4.70
2023-03-06T17:01:31.618Z,4.70
2023-03-06T17:04:33.362Z,4.60
2023-03-06T17:07:36.347Z,4.60
2023-03-06T17:10:41.045Z,4.60
2023-03-06T17:13:42.686Z,4.60
2023-03-06T17:16:45.535Z,4.50
2023-03-06T17:19:50.934Z,4.50
2023-03-06T17:22:52.567Z,4.40
2023-03-06T17:26:15.831Z,4.30
2023-03-06T17:29:17.780Z,4.30
2023-03-06T17:32:19.359Z,4.30
2023-03-06T17:35:20.965Z,4.30
2023-03-06T17:38:22.533Z,4.20
2023-03-06T17:41:24.906Z,4.10
2023-03-06T17:44:26.537Z,4.10
2023-03-06T17:47:28.158Z,4.00
2023-03-06T17:50:29.824Z,4.00
2023-03-06T17:53:32.239Z,3.90
2023-03-06T17:56:33.851Z,3.80
2023-03-06T17:59:35.609Z,3.80
2023-03-06T18:02:37.264Z,3.80
2023-03-06T18:05:39.058Z,3.70
2023-03-06T18:08:41.007Z,3.70
2023-03-06T18:11:42.785Z,3.70
2023-03-06T18:14:44.474Z,3.70
2023-03-06T18:17:46.316Z,3.60
2023-03-06T18:20:48.108Z,3.60
2023-03-06T18:23:50.028Z,3.50
2023-03-06T18:26:51.628Z,3.50
2023-03-06T18:29:55.399Z,3.40
2023-03-06T18:32:57.094Z,3.40
2023-03-06T18:36:02.614Z,3.40
2023-03-06T18:39:08.548Z,3.30
2023-03-06T18:42:10.172Z,3.40
2023-03-06T18:45:13.778Z,3.30
2023-03-06T18:48:17.692Z,3.30
2023-03-06T18:51:20.104Z,3.30
2023-03-06T18:54:22.465Z,3.30
2023-03-06T18:57:24.017Z,3.20
2023-03-06T19:00:25.729Z,3.20
2023-03-06T19:03:27.564Z,3.20
2023-03-06T19:06:29.784Z,3.20
2023-03-06T19:09:31.447Z,3.20
2023-03-06T19:12:33.725Z,3.20
2023-03-06T19:15:41.151Z,3.10
2023-03-06T19:18:42.762Z,3.10
2023-03-06T19:21:44.391Z,3.10
2023-03-06T19:24:47.991Z,3.10
2023-03-06T19:27:49.599Z,3.10
2023-03-06T19:30:51.993Z,3.10
2023-03-06T19:33:56.823Z,3.10
2023-03-06T19:36:58.520Z,3.10
2023-03-06T19:40:02.521Z,3.10
2023-03-06T19:43:04.456Z,3.20
2023-03-06T19:46:06.403Z,3.20
2023-03-06T19:49:12.040Z,3.20
2023-03-06T19:52:13.794Z,3.20
2023-03-06T19:55:15.582Z,3.30
2023-03-06T19:58:17.184Z,3.20
2023-03-06T20:01:20.891Z,3.20
2023-03-06T20:04:23.848Z,3.20
2023-03-06T20:07:25.586Z,3.20
2023-03-06T20:10:27.230Z,3.20
2023-03-06T20:13:28.953Z,3.20
2023-03-06T20:16:31.558Z,3.10
2023-03-06T20:19:33.601Z,3.10
2023-03-06T20:22:35.461Z,3.00
2023-03-06T20:25:37.248Z,2.90
2023-03-06T20:28:40.284Z,2.90
2023-03-06T20:31:41.922Z,2.80
2023-03-06T20:34:44.435Z,2.80
2023-03-06T20:37:46.083Z,2.70
2023-03-06T20:40:48.015Z,2.70
2023-03-06T20:43:49.930Z,2.60
2023-03-06T20:46:52.027Z,2.60
2023-03-06T20:49:53.723Z,2.60
2023-03-06T20:52:56.662Z,2.60
2023-03-06T20:55:58.628Z,2.60
2023-03-06T20:59:00.585Z,2.70
2023-03-06T21:02:02.680Z,2.70
2023-03-06T21:05:04.492Z,2.70
2023-03-06T21:08:07.102Z,2.70
2023-03-06T21:11:08.885Z,2.70
2023-03-06T21:14:12.228Z,2.70
2023-03-06T21:17:14.029Z,2.70
2023-03-06T21:20:15.866Z,2.60
2023-03-06T21:23:17.536Z,2.60
2023-03-06T21:26:21.834Z,2.60
2023-03-06T21:29:23.374Z,2.50
2023-03-06T21:32:25.533Z,2.50
2023-03-06T21:35:27.172Z,2.50
2023-03-06T21:38:28.799Z,2.50
2023-03-06T21:41:32.216Z,2.40
2023-03-06T21:44:33.810Z,2.40
2023-03-06T21:47:39.297Z,2.40
2023-03-06T21:50:41.809Z,2.40
2023-03-06T21:53:44.628Z,2.40
2023-03-06T21:56:46.296Z,2.40
2023-03-06T21:59:48.064Z,2.40
2023-03-06T22:02:50.396Z,2.40
2023-03-06T22:05:52.748Z,2.40
2023-03-06T22:08:56.819Z,2.40
2023-03-06T22:11:58.673Z,2.40
2023-03-06T22:15:00.559Z,2.40
2023-03-06T22:18:03.451Z,2.50
2023-03-06T22:21:10.115Z,2.50
2023-03-06T22:24:11.696Z,2.50
2023-03-06T22:27:13.285Z,2.50
2023-03-06T22:30:15.071Z,2.60
2023-03-06T22:33:16.643Z,2.60
2023-03-06T22:36:19.516Z,2.70
2023-03-06T22:39:21.079Z,2.70
2023-03-06T22:42:22.689Z,2.70
2023-03-06T22:45:24.458Z,2.80
2023-03-06T22:48:26.329Z,2.70
2023-03-06T22:51:28.779Z,2.80
2023-03-06T22:54:30.508Z,2.90
2023-03-06T22:57:32.268Z,2.90
2023-03-06T23:00:33.829Z,2.90
2023-03-06T23:03:37.080Z,2.90
2023-03-06T23:06:41.137Z,3.00
2023-03-06T23:09:42.769Z,3.00
2023-03-06T23:12:44.418Z,3.10
2023-03-06T23:15:46.035Z,3.00
2023-03-06T23:18:48.193Z,3.10
2023-03-06T23:21:50.045Z,3.10
2023-03-06T23:24:51.663Z,3.10
2023-03-06T23:27:53.235Z,3.10
2023-03-06T23:30:54.906Z,3.20
2023-03-06T23:33:58.355Z,3.20
2023-03-06T23:36:59.976Z,3.20
2023-03-06T23:40:01.659Z,3.20
2023-03-06T23:43:03.940Z,3.20
2023-03-06T23:46:07.024Z,3.30
2023-03-06T23:49:08.729Z,3.30
2023-03-06T23:52:10.283Z,3.30
2023-03-06T23:55:12.376Z,3.30
2023-03-06T23:58:15.585Z,3.30
